Beechwood, Michigan
Current Conditions -  °F | °C
As of 8:35 PM on Sunday 21 Dec 2014 (Local Time) from KLNL Reporting Station
Light Snow Light Snow  
Wind Chill: -4°   Ceiling: 700
Heat Index:   Visibility: 2mi
Dew Point:   Wind: 8mph
Humidity: 98%   Direction: 170°S
Pressure: 29.84"   Gusts: 17mph
Location:  46.2163°N, 88.7676°W
Report Text: KLNL 220235Z AUTO 17007G15KT 150V210 2SM -SN BKN007 OVC012 00/00 A2984 RMK AO2 T00030000
Loading
Personal Weather Stations






























Interactive Weather Map New forecast layout! Learn more

10-Day Weather Forecast

Advertisements
Track Severe Weather on mobile